createdAt,value
2024-02-13T02:37:51.265Z,953.9
2024-02-13T02:42:53.296Z,953.94
2024-02-13T02:47:54.911Z,954.03
2024-02-13T02:52:56.943Z,954.06
2024-02-13T02:57:59.128Z,954.08
2024-02-13T03:03:01.286Z,954.19
2024-02-13T03:08:02.702Z,954.24
2024-02-13T03:13:03.885Z,954.25
2024-02-13T03:18:05.605Z,954.31
2024-02-13T03:23:07.368Z,954.41
2024-02-13T03:28:08.790Z,954.49
2024-02-13T03:33:10.334Z,954.58
2024-02-13T03:38:11.497Z,954.66
2024-02-13T03:43:13.476Z,954.72
2024-02-13T03:48:15.280Z,954.78
2024-02-13T03:53:16.752Z,954.84
2024-02-13T03:58:27.294Z,954.88
2024-02-13T04:03:20.314Z,954.94
2024-02-13T04:08:22.412Z,954.96
2024-02-13T04:13:24.495Z,955.04
2024-02-13T04:18:25.968Z,955.08
2024-02-13T04:23:27.796Z,955.15
2024-02-13T04:28:29.002Z,955.19
2024-02-13T04:33:30.763Z,955.24
2024-02-13T04:38:32.736Z,955.29
2024-02-13T04:43:34.117Z,955.35
2024-02-13T04:48:36.036Z,955.35
2024-02-13T04:53:37.526Z,955.46
2024-02-13T04:58:39.506Z,955.44
2024-02-13T05:03:41.148Z,955.52
2024-02-13T05:08:42.223Z,955.58
2024-02-13T05:13:43.821Z,955.58
2024-02-13T05:18:46.059Z,955.74
2024-02-13T05:23:47.336Z,955.71
2024-02-13T05:28:49.038Z,955.65
2024-02-13T05:33:51.053Z,955.74
2024-02-13T05:38:52.364Z,955.75
2024-02-13T05:43:54.148Z,955.76
2024-02-13T05:48:56.161Z,955.82
2024-02-13T05:53:58.122Z,955.87
2024-02-13T05:58:59.996Z,956.04
2024-02-13T06:04:02.179Z,956.07
2024-02-13T06:09:03.891Z,956.16
2024-02-13T06:14:05.418Z,956.17
2024-02-13T06:19:07.017Z,956.29
2024-02-13T06:24:08.551Z,956.39
2024-02-13T06:29:09.792Z,956.42
2024-02-13T06:34:11.881Z,956.51
2024-02-13T06:39:13.630Z,956.51
2024-02-13T06:44:15.064Z,956.57
2024-02-13T06:49:16.945Z,956.58
2024-02-13T06:54:18.346Z,956.61
2024-02-13T06:59:20.465Z,956.68
2024-02-13T07:04:22.073Z,956.71
2024-02-13T07:09:23.649Z,956.81
2024-02-13T07:14:25.786Z,956.87
2024-02-13T07:19:27.205Z,956.96
2024-02-13T07:24:29.109Z,957.06
2024-02-13T07:29:30.810Z,957.12
2024-02-13T07:34:32.357Z,957.21
2024-02-13T07:39:34.336Z,957.21
2024-02-13T07:44:35.678Z,957.19
2024-02-13T07:49:37.477Z,957.3
2024-02-13T07:54:39.486Z,957.27
2024-02-13T07:59:41.209Z,957.37
2024-02-13T08:04:43.501Z,957.34
2024-02-13T08:09:44.429Z,957.31
2024-02-13T08:14:45.776Z,957.36
2024-02-13T08:19:47.220Z,957.35
2024-02-13T08:24:49.259Z,957.42
2024-02-13T08:29:52.115Z,957.39
2024-02-13T08:34:53.235Z,957.42
2024-02-13T08:39:54.637Z,957.5
2024-02-13T08:44:56.627Z,957.52
2024-02-13T08:49:58.495Z,957.56
2024-02-13T08:54:59.989Z,957.58
2024-02-13T09:00:02.221Z,957.6
2024-02-13T09:05:03.840Z,957.63
2024-02-13T09:10:05.086Z,957.61
2024-02-13T09:15:06.371Z,957.62
2024-02-13T09:20:08.464Z,957.64
2024-02-13T09:25:10.583Z,957.69
2024-02-13T09:30:12.321Z,957.71
2024-02-13T09:35:14.115Z,957.73
2024-02-13T09:40:16.049Z,957.76
2024-02-13T09:45:18.022Z,957.76
2024-02-13T09:50:20.160Z,957.83
2024-02-13T09:55:21.856Z,957.8
2024-02-13T10:00:23.247Z,957.83
2024-02-13T10:05:25.012Z,957.84
2024-02-13T10:10:26.476Z,957.9
2024-02-13T10:15:28.211Z,957.87
2024-02-13T10:20:29.477Z,957.84
2024-02-13T10:25:30.818Z,957.87
2024-02-13T10:30:32.341Z,957.82
2024-02-13T10:35:34.588Z,957.91
2024-02-13T10:40:35.736Z,957.91
2024-02-13T10:45:37.286Z,957.82
2024-02-13T10:50:39.110Z,957.82
2024-02-13T10:55:43.509Z,957.83
2024-02-13T11:00:42.818Z,957.87
2024-02-13T11:05:44.791Z,957.88
2024-02-13T11:10:46.839Z,957.81
2024-02-13T11:15:48.579Z,957.8
2024-02-13T11:20:50.518Z,957.68
2024-02-13T11:25:51.980Z,957.65
2024-02-13T11:30:53.990Z,957.61
2024-02-13T11:35:55.276Z,957.56
2024-02-13T11:40:57.091Z,957.58
2024-02-13T11:45:58.603Z,957.52
2024-02-13T11:51:00.254Z,957.57
2024-02-13T11:56:01.592Z,957.51
2024-02-13T12:01:03.440Z,957.45
2024-02-13T12:06:05.341Z,957.42
2024-02-13T12:11:06.829Z,957.44
2024-02-13T12:16:14.988Z,957.51
2024-02-13T12:21:16.256Z,957.48
2024-02-13T12:26:17.869Z,957.44
2024-02-13T12:31:19.473Z,957.43
2024-02-13T12:36:21.320Z,957.46
2024-02-13T12:41:22.909Z,957.44
2024-02-13T12:46:24.892Z,957.48
2024-02-13T12:51:26.219Z,957.52
2024-02-13T12:56:28.174Z,957.52
2024-02-13T13:01:29.678Z,957.51
2024-02-13T13:06:31.831Z,957.5
2024-02-13T13:11:33.856Z,957.53
2024-02-13T13:16:35.060Z,957.57
2024-02-13T13:21:36.552Z,957.51
2024-02-13T13:26:38.615Z,957.5
2024-02-13T13:31:40.636Z,957.53
2024-02-13T13:36:41.813Z,957.51
2024-02-13T13:41:43.228Z,957.39
2024-02-13T13:46:44.502Z,957.41
2024-02-13T13:51:46.275Z,957.43
2024-02-13T13:56:48.168Z,957.38
2024-02-13T14:01:50.062Z,957.39
2024-02-13T14:47:05.874Z,957.55
2024-02-13T15:02:10.785Z,957.45
2024-02-13T15:27:18.900Z,957.42
2024-02-13T15:57:29.487Z,957.61
2024-02-13T16:57:50.402Z,958.16
2024-02-13T17:02:52.372Z,958.13
2024-02-13T17:07:53.544Z,958.17
2024-02-13T17:12:55.601Z,958.21
2024-02-13T17:17:56.965Z,958.25
2024-02-13T17:22:58.160Z,958.37
2024-02-13T17:28:00.012Z,958.41
2024-02-13T17:33:02.816Z,958.45
2024-02-13T17:38:03.221Z,958.46
2024-02-13T17:43:05.178Z,958.55
2024-02-13T17:48:06.799Z,958.55
2024-02-13T17:53:08.624Z,958.56
2024-02-13T17:58:10.172Z,958.56
2024-02-13T18:03:11.819Z,958.54
2024-02-13T18:08:13.868Z,958.54
2024-02-13T18:13:15.684Z,958.59
2024-02-13T18:18:17.289Z,958.64
2024-02-13T18:23:19.334Z,958.64
2024-02-13T18:28:20.943Z,958.63
2024-02-13T18:33:22.372Z,958.57
2024-02-13T18:38:24.019Z,958.55
2024-02-13T18:43:25.574Z,958.55
2024-02-13T18:48:27.186Z,958.57
2024-02-13T18:53:29.029Z,958.64
2024-02-13T18:58:39.406Z,958.63
2024-02-13T19:03:32.326Z,958.71
2024-02-13T19:08:34.555Z,958.7
2024-02-13T19:13:36.519Z,958.68
2024-02-13T19:18:38.054Z,958.66
2024-02-13T19:23:40.033Z,958.7
2024-02-13T19:28:41.552Z,958.73
2024-02-13T19:33:43.235Z,958.75
2024-02-13T19:38:44.513Z,958.76
2024-02-13T19:43:46.427Z,958.88
2024-02-13T19:48:47.975Z,958.86
2024-02-13T19:53:49.670Z,958.84
2024-02-13T19:58:51.833Z,958.82
2024-02-13T20:03:53.623Z,958.84
2024-02-13T20:08:55.275Z,958.8
2024-02-13T20:13:56.541Z,958.89
2024-02-13T20:18:58.906Z,958.83
2024-02-13T20:23:59.913Z,958.81
2024-02-13T20:29:01.339Z,958.84
2024-02-13T20:34:03.471Z,958.87
2024-02-13T20:39:05.532Z,958.86
2024-02-13T20:44:07.402Z,958.87
2024-02-13T20:49:09.601Z,958.82
2024-02-13T20:54:11.616Z,958.87
2024-02-13T20:59:13.058Z,958.88
2024-02-13T21:04:14.966Z,958.93
2024-02-13T21:09:16.764Z,958.87
2024-02-13T21:14:18.336Z,958.88
2024-02-13T21:19:20.124Z,958.9
2024-02-13T21:24:21.759Z,958.91
2024-02-13T21:29:23.425Z,958.99
2024-02-13T21:34:25.314Z,959.03
2024-02-13T21:39:27.197Z,959.01
2024-02-13T21:44:28.532Z,959.04
2024-02-13T21:49:29.822Z,959.08
2024-02-13T21:54:31.683Z,959.02
2024-02-13T21:59:33.289Z,959.01
2024-02-13T22:04:35.169Z,959.02
2024-02-13T22:09:36.651Z,958.96
2024-02-13T22:14:38.437Z,959
2024-02-13T22:19:40.222Z,958.97
2024-02-13T22:24:41.497Z,958.93
2024-02-13T22:29:43.186Z,959.01
2024-02-13T22:34:44.700Z,958.99
2024-02-13T22:39:46.330Z,959.07
2024-02-13T22:44:47.667Z,959.11
2024-02-13T22:49:49.555Z,959.07
2024-02-13T22:54:51.039Z,959.06
2024-02-13T22:59:52.862Z,959.07
2024-02-13T23:04:54.401Z,959.11
2024-02-13T23:09:56.255Z,959.17
2024-02-13T23:14:59.002Z,959.2
2024-02-13T23:19:59.395Z,959.18
2024-02-13T23:25:01.264Z,959.19
2024-02-13T23:30:02.787Z,959.2
2024-02-13T23:35:04.505Z,959.21
2024-02-13T23:40:05.823Z,959.16
2024-02-13T23:45:07.875Z,959.23
2024-02-13T23:50:09.297Z,959.27
2024-02-13T23:55:10.510Z,959.25
